Flight Track Log - Related Links

Times and Time Zones

All times are in EDT time to prevent confusion due to time zone crossing. See the GJS3618 flight status page for this flight to view local times or setup timezone preferences in your user account.


Time Position Orientation Groundspeed Altitude Reporting Facility
EDT Latitude Longitude Course Direction KTS MPH feet Rate Location/Type
Mon 07:43:41 PM 45.7953 -111.1792 325° Northwest 162 186 5,700  Level Salt Lake Center
Mon 07:44:31 PM 45.7944 -111.2381 269° West 216 249 7,300 1,839 Climbing Salt Lake Center
Mon 07:44:43 PM 45.7881 -111.2469 224° Southwest 210 242 7,600 2,200 Climbing Salt Lake Center
Mon 07:45:31 PM 45.7328 -111.2647 193° South 278 320 9,500 2,323 Climbing Salt Lake Center
Mon 07:45:45 PM 45.7175 -111.2539 154° Southeast 270 311 10,000 1,974 Climbing Salt Lake Center
Mon 07:46:47 PM 45.6439 -111.1878 148° Southeast 316 364 12,000 2,049 Climbing Salt Lake Center
Mon 07:47:48 PM 45.6314 -111.0428 97° East 378 435 14,200 2,146 Climbing Salt Lake Center
Mon 07:48:50 PM 45.6403 -110.8839 85° East 393 452 16,400 2,032 Climbing Salt Lake Center
Mon 07:49:52 PM 45.5897 -110.7481 118° Southeast 394 453 18,400 1,645 Climbing Salt Lake Center
Mon 07:50:54 PM 45.4964 -110.6619 147° Southeast 391 450 19,800 1,839 Climbing Salt Lake Center
Mon 07:51:56 PM 45.4050 -110.5797 148° Southeast 401 461 22,200 2,468 Climbing Salt Lake Center
Mon 07:52:58 PM 45.3203 -110.5003 147° Southeast 371 427 24,900 1,610 Climbing Salt Lake Center
Mon 07:53:59 PM 45.2319 -110.4186 147° Southeast 380 437 25,500 829 Climbing Salt Lake Center
Mon 07:55:01 PM 45.1142 -110.3061 146° Southeast 429 494 26,600 1,016 Climbing Salt Lake Center
Mon 07:56:03 PM 45.0200 -110.1875 138° Southeast 434 499 27,600 1,065 Climbing Salt Lake Center
Mon 07:57:05 PM 44.9267 -110.0689 138° Southeast 445 512 28,800 1,548 Climbing Salt Lake Center
Mon 07:58:07 PM 44.8353 -109.9564 139° Southeast 435 501 30,800 1,210 Climbing Salt Lake Center
Mon 07:59:09 PM 44.7428 -109.8397 138° Southeast 445 512 31,300 683 Climbing Salt Lake Center
Mon 08:00:10 PM 44.6492 -109.7297 140° Southeast 462 532 32,200 1,073 Climbing Salt Lake Center
Mon 08:01:12 PM 44.5514 -109.6011 137° Southeast 453 521 33,500 1,210 Climbing Salt Lake Center
Mon 08:02:14 PM 44.4564 -109.4844 139° Southeast 449 517 34,700 1,403 Climbing Salt Lake Center
Mon 08:03:16 PM 44.3458 -109.3522 139° Southeast 464 534 36,400 1,113 Climbing Salt Lake Center
Mon 08:04:18 PM 44.2506 -109.2381 139° Southeast 459 528 37,000 290 Climbing Salt Lake Center
Mon 08:05:20 PM 44.1528 -109.1206 139° Southeast 463 533 37,000  Level Salt Lake Center
Mon 08:06:21 PM 44.0519 -108.9992 139° Southeast 477 549 37,000  Level Salt Lake Center
Mon 08:07:23 PM 43.9300 -108.8531 139° Southeast 483 556 37,000  Level Salt Lake Center
Mon 08:08:25 PM 43.8283 -108.7325 139° Southeast 484 557 37,000  Level Salt Lake Center
Mon 08:09:27 PM 43.7261 -108.6119 140° Southeast 484 557 37,000  Level Salt Lake Center
Mon 08:10:29 PM 43.6250 -108.4919 139° Southeast 484 557 37,000  Level Salt Lake Center
Mon 08:11:30 PM 43.5222 -108.3731 140° Southeast 484 557 37,000  Level Salt Lake Center
Mon 08:12:32 PM 43.4175 -108.2536 140° Southeast 485 558 37,000  Level Salt Lake Center
Mon 08:13:34 PM 43.2886 -108.1186 143° Southeast 487 560 37,000  Level Salt Lake Center
Mon 08:14:36 PM 43.1811 -108.0033 142° Southeast 489 563 37,000  Level Salt Lake Center
Mon 08:15:38 PM 43.0714 -107.8881 142° Southeast 494 568 37,000  Level Salt Lake Center
Mon 08:16:39 PM 42.9631 -107.7750 143° Southeast 495 570 37,000  Level Salt Lake Center
Mon 08:17:41 PM 42.8561 -107.6611 142° Southeast 484 557 37,000  Level Salt Lake Center
Mon 08:18:43 PM 42.7397 -107.5392 142° Southeast 476 548 37,000  Level Salt Lake Center
Mon 08:19:45 PM 42.6400 -107.4369 143° Southeast 471 542 37,000  Level Salt Lake Center
Mon 08:20:47 PM 42.5256 -107.3197 143° Southeast 464 534 37,000  Level Salt Lake Center
Mon 08:21:48 PM 42.4231 -107.2328 148° Southeast 459 528 37,000  Level Salt Lake Center
Mon 08:22:52 PM 42.2986 -107.1519 154° Southeast 444 511 37,000  Level Denver Center
Mon 08:23:54 PM 42.1914 -107.0833 155° Southeast 445 512 37,000  Level Denver Center
Mon 08:24:56 PM 42.0619 -107.0389 166° South 437 503 37,000  Level Denver Center
Mon 08:25:58 PM 41.9717 -107.1014 207° Southwest 389 448 37,000  Level Denver Center
Mon 08:27:00 PM 41.8881 -107.1781 214° Southwest 382 440 37,000  Level Denver Center
Mon 08:28:02 PM 41.7875 -107.2675 214° Southwest 382 440 37,000  Level Denver Center
Mon 08:29:04 PM 41.7028 -107.3481 215° Southwest 387 445 37,000  Level Denver Center
Mon 08:30:06 PM 41.6028 -107.4406 215° Southwest 389 448 37,000  Level Denver Center
Mon 08:31:08 PM 41.5164 -107.5233 216° Southwest 393 452 37,000  Level Denver Center
Mon 08:32:10 PM 41.4153 -107.6186 215° Southwest 394 453 37,000  Level Denver Center
Mon 08:33:12 PM 41.3233 -107.6917 211° Southwest 401 461 37,000 -290 Level Denver Center
Mon 08:34:14 PM 41.1914 -107.7044 184° South 424 488 36,400 -823 Descending Denver Center
Mon 08:35:16 PM 41.0828 -107.7106 182° South 415 478 35,300 -677 Descending Denver Center
Mon 08:36:18 PM 40.9550 -107.7208 183° South 412 474 35,000 -194 Descending Denver Center
Mon 08:37:20 PM 40.8431 -107.7281 183° South 413 475 34,900 -677 Descending Denver Center
Mon 08:38:22 PM 40.7156 -107.7392 184° South 416 479 33,600 -1,113 Descending Denver Center
Mon 08:39:24 PM 40.6150 -107.7028 165° South 408 470 32,600 -968 Descending Denver Center
Mon 08:40:26 PM 40.5403 -107.5883 131° Southeast 426 490 31,600 -1,065 Descending Denver Center
Mon 08:41:28 PM 40.4950 -107.4211 110° East 451 519 30,400 -1,065 Descending Denver Center
Mon 08:42:30 PM 40.4864 -107.2628 94° East 455 524 29,400 -871 Descending Denver Center
Mon 08:43:32 PM 40.4797 -107.0847 93° East 447 514 28,600 -726 Descending Denver Center
Mon 08:44:34 PM 40.5481 -106.9686 52° Northeast 436 502 27,900 -774 Descending Denver Center
Mon 08:45:36 PM 40.6222 -106.8458 51° Northeast 431 496 27,000 -435 Descending Denver Center
Mon 08:46:38 PM 40.6947 -106.7206 53° Northeast 429 494 27,000  Level Denver Center
Mon 08:47:40 PM 40.7069 -106.5400 85° East 432 497 27,000  Level Denver Center
Mon 08:48:42 PM 40.6586 -106.4025 115° Southeast 423 487 27,000  Level Denver Center
Mon 08:49:44 PM 40.6100 -106.2694 116° Southeast 423 487 27,000 -387 Level Denver Center
Mon 08:50:46 PM 40.5161 -106.1694 141° Southeast 382 440 26,200 -919 Descending Denver Center
Mon 08:51:48 PM 40.4431 -106.0919 141° Southeast 374 430 25,100 -1,935 Descending Denver Center
Mon 08:52:50 PM 40.3464 -105.9956 143° Southeast 369 425 22,200 -2,323 Descending Denver Center
Mon 08:53:52 PM 40.2664 -105.9211 145° Southeast 359 413 20,300 -1,016 Descending Denver Center
Mon 08:54:54 PM 40.2397 -105.8008 106° East 359 413 20,100 -1,065 Descending Denver Center
Mon 08:55:56 PM 40.2731 -105.6833 70° East 345 397 18,100 -1,500 Descending Denver Center
Mon 08:56:58 PM 40.3119 -105.5694 66° East 342 394 17,000 -532 Descending Denver Center
Mon 08:58:00 PM 40.3522 -105.4369 68° East 339 390 17,000  Level Denver Center
Mon 08:59:02 PM 40.3383 -105.3153 98° East 342 394 17,000 -532 Level Denver Center
Mon 09:00:04 PM 40.3219 -105.1847 99° East 341 392 15,900 -1,306 Descending Denver Center
Mon 09:01:06 PM 40.3069 -105.0722 100° East 316 364 14,300 -1,548 Descending Denver Center
Mon 09:02:08 PM 40.2747 -104.9733 113° Southeast 298 343 12,700 -1,694 Descending Denver Center
Mon 09:03:10 PM 40.2333 -104.8731 118° Southeast 294 338 10,800 -1,742 Descending Denver Center
Mon 09:04:12 PM 40.1711 -104.8142 144° Southeast 280 322 9,100 -1,403 Descending Denver Center
Mon 09:05:14 PM 40.0986 -104.7694 155° Southeast 268 308 7,900 -968 Descending Denver Center
Mon 09:06:16 PM 40.0336 -104.7292 155° Southeast 260 299 7,100 -532 Descending Denver Center
Mon 09:07:18 PM 39.9756 -104.6983 158° South 216 249 6,800 -629 Descending Denver Center
Mon 09:08:20 PM 39.9217 -104.6958 178° South 177 204 5,800 -726 Descending Denver Center
Mon 09:09:22 PM 39.8836 -104.6961 180° South 138 159 5,300 -484 Descending Denver Center
Mon 09:11:00 PM 39.8617 -104.6732 180° South  Level Estimated
Mon 09:18:00 PM 39.8617 -104.6732 180° South  Level Estimated
Mon 09:19:00 PM 39.8617 -104.6732 180° South  Level Estimated

Login

Don't have an account? Register now (free) for customized features, flight alerts, and more!